Terminal Aerodrome Forecast
Issued by NWS Jacksonville, FL

Current Version | Previous Version | Text Only | Print | Product List | Glossary On
Versions: 1 2 3 4 5 6 7 8 9 10 11 12 13 14 15 16 17 18 19 20 21 22 23 24
000
FTUS42 KJAX 182300 RRA
TAFSSI
TAF
KSSI 182349Z 1900/1924 02012KT P6SM VCSH BKN006 OVC030
      WS010/14035KT
      TEMPO 1900/1902 5SM -SHRA
     FM190200 14012KT P6SM VCSH SCT006 OVC020 WS020/22035KT
     FM190800 VRB05KT P6SM SCT006 BKN012
     FM191400 12010KT P6SM VCSH SCT015 BKN035=

USA.gov is the U.S. government's official web portal to all federal, state and local government web resources and services.